sensor_id;sensor_type;location;lat;lon;timestamp;pressure;altitude;pressure_sealevel;temperature;humidity
62055;BME280;48653;51.742;-1.256;2023-02-18T00:03:44;101612.31;;;10.13;65.28
62055;BME280;48653;51.742;-1.256;2023-02-18T00:06:11;101600.33;;;9.07;67.37
62055;BME280;48653;51.742;-1.256;2023-02-18T00:08:33;101604.38;;;9.63;67.33
62055;BME280;48653;51.742;-1.256;2023-02-18T00:10:58;101601.25;;;9.25;67.65
62055;BME280;48653;51.742;-1.256;2023-02-18T00:13:23;101592.43;;;9.70;68.14
62055;BME280;48653;51.742;-1.256;2023-02-18T00:15:48;101589.92;;;9.45;67.83
62055;BME280;48653;51.742;-1.256;2023-02-18T00:18:13;101593.43;;;8.85;68.62
62055;BME280;48653;51.742;-1.256;2023-02-18T00:20:39;101596.53;;;8.79;68.59
62055;BME280;48653;51.742;-1.256;2023-02-18T00:23:04;101592.94;;;9.07;68.07
62055;BME280;48653;51.742;-1.256;2023-02-18T00:25:29;101581.29;;;9.09;67.04
62055;BME280;48653;51.742;-1.256;2023-02-18T00:27:55;101578.92;;;8.56;67.92
62055;BME280;48653;51.742;-1.256;2023-02-18T00:30:19;101578.97;;;8.88;66.74
62055;BME280;48653;51.742;-1.256;2023-02-18T00:32:44;101584.45;;;9.01;65.23
62055;BME280;48653;51.742;-1.256;2023-02-18T00:35:09;101579.43;;;9.11;64.45
62055;BME280;48653;51.742;-1.256;2023-02-18T00:37:34;101573.02;;;9.47;63.57
62055;BME280;48653;51.742;-1.256;2023-02-18T00:39:59;101563.07;;;9.01;64.05
62055;BME280;48653;51.742;-1.256;2023-02-18T00:42:24;101564.44;;;8.98;64.40
62055;BME280;48653;51.742;-1.256;2023-02-18T00:44:49;101572.30;;;8.46;65.86
62055;BME280;48653;51.742;-1.256;2023-02-18T00:47:14;101565.08;;;8.87;65.05
62055;BME280;48653;51.742;-1.256;2023-02-18T00:49:40;101559.08;;;9.58;63.09
62055;BME280;48653;51.742;-1.256;2023-02-18T00:52:05;101576.87;;;9.76;62.71
62055;BME280;48653;51.742;-1.256;2023-02-18T00:54:30;101573.94;;;9.01;63.74
62055;BME280;48653;51.742;-1.256;2023-02-18T00:56:55;101579.21;;;8.96;63.86
62055;BME280;48653;51.742;-1.256;2023-02-18T00:59:20;101571.84;;;8.84;63.09
62055;BME280;48653;51.742;-1.256;2023-02-18T01:01:45;101576.22;;;8.78;63.11
62055;BME280;48653;51.742;-1.256;2023-02-18T01:04:10;101583.31;;;8.57;64.32
62055;BME280;48653;51.742;-1.256;2023-02-18T01:06:36;101581.52;;;8.57;65.72
62055;BME280;48653;51.742;-1.256;2023-02-18T01:09:01;101582.76;;;8.41;64.94
62055;BME280;48653;51.742;-1.256;2023-02-18T01:11:26;101583.57;;;8.34;65.25
62055;BME280;48653;51.742;-1.256;2023-02-18T01:13:51;101580.17;;;8.62;64.42
62055;BME280;48653;51.742;-1.256;2023-02-18T01:16:16;101575.49;;;8.09;65.59
62055;BME280;48653;51.742;-1.256;2023-02-18T01:18:41;101563.56;;;8.24;66.43
62055;BME280;48653;51.742;-1.256;2023-02-18T01:21:07;101556.83;;;8.08;66.11
62055;BME280;48653;51.742;-1.256;2023-02-18T01:23:31;101569.68;;;8.30;65.10
62055;BME280;48653;51.742;-1.256;2023-02-18T01:25:57;101561.47;;;8.47;64.65
62055;BME280;48653;51.742;-1.256;2023-02-18T01:28:21;101552.14;;;8.57;65.34
62055;BME280;48653;51.742;-1.256;2023-02-18T01:30:46;101561.84;;;8.31;64.67
62055;BME280;48653;51.742;-1.256;2023-02-18T01:33:11;101553.48;;;8.40;64.86
62055;BME280;48653;51.742;-1.256;2023-02-18T01:35:37;101554.49;;;8.47;64.02
62055;BME280;48653;51.742;-1.256;2023-02-18T01:38:02;101536.36;;;9.21;61.81
62055;BME280;48653;51.742;-1.256;2023-02-18T01:40:28;101541.75;;;8.53;62.58
62055;BME280;48653;51.742;-1.256;2023-02-18T01:42:52;101521.45;;;9.04;61.57
62055;BME280;48653;51.742;-1.256;2023-02-18T01:47:42;101538.59;;;9.13;61.32
62055;BME280;48653;51.742;-1.256;2023-02-18T01:50:07;101540.15;;;8.76;61.52
62055;BME280;48653;51.742;-1.256;2023-02-18T01:52:32;101534.04;;;8.97;61.69
62055;BME280;48653;51.742;-1.256;2023-02-18T01:54:58;101519.99;;;8.57;62.42
62055;BME280;48653;51.742;-1.256;2023-02-18T01:57:26;101509.63;;;9.07;61.26
62055;BME280;48653;51.742;-1.256;2023-02-18T01:59:49;101511.09;;;9.19;59.89
62055;BME280;48653;51.742;-1.256;2023-02-18T02:02:14;101514.50;;;8.80;61.50
62055;BME280;48653;51.742;-1.256;2023-02-18T02:04:38;101509.85;;;8.75;61.71
62055;BME280;48653;51.742;-1.256;2023-02-18T02:07:03;101515.02;;;8.11;62.44
62055;BME280;48653;51.742;-1.256;2023-02-18T02:09:30;101503.57;;;9.00;60.94
62055;BME280;48653;51.742;-1.256;2023-02-18T02:12:09;101499.07;;;9.10;59.08
62055;BME280;48653;51.742;-1.256;2023-02-18T02:14:30;101504.17;;;8.70;60.57
62055;BME280;48653;51.742;-1.256;2023-02-18T02:16:50;101494.38;;;9.10;59.46
62055;BME280;48653;51.742;-1.256;2023-02-18T02:21:59;101486.84;;;8.71;59.68
62055;BME280;48653;51.742;-1.256;2023-02-18T02:24:13;101486.59;;;8.80;59.79
62055;BME280;48653;51.742;-1.256;2023-02-18T02:26:43;101480.25;;;8.57;59.25
62055;BME280;48653;51.742;-1.256;2023-02-18T02:29:01;101480.98;;;8.86;59.33
62055;BME280;48653;51.742;-1.256;2023-02-18T02:31:35;101477.46;;;8.89;59.02
62055;BME280;48653;51.742;-1.256;2023-02-18T02:36:10;101460.98;;;9.41;56.76
62055;BME280;48653;51.742;-1.256;2023-02-18T02:38:35;101463.41;;;9.58;55.89
62055;BME280;48653;51.742;-1.256;2023-02-18T02:41:02;101448.50;;;9.24;56.55
62055;BME280;48653;51.742;-1.256;2023-02-18T02:43:30;101450.85;;;9.23;57.12
62055;BME280;48653;51.742;-1.256;2023-02-18T02:45:53;101448.05;;;8.89;57.79
62055;BME280;48653;51.742;-1.256;2023-02-18T02:48:17;101435.74;;;8.84;58.08
62055;BME280;48653;51.742;-1.256;2023-02-18T02:50:42;101429.60;;;8.46;58.54
62055;BME280;48653;51.742;-1.256;2023-02-18T02:53:09;101437.38;;;8.77;57.80
62055;BME280;48653;51.742;-1.256;2023-02-18T02:55:27;101434.99;;;8.23;59.87
62055;BME280;48653;51.742;-1.256;2023-02-18T02:57:54;101440.01;;;8.23;59.27
62055;BME280;48653;51.742;-1.256;2023-02-18T03:00:22;101421.78;;;8.04;60.21
62055;BME280;48653;51.742;-1.256;2023-02-18T03:03:03;101419.25;;;8.05;60.34
62055;BME280;48653;51.742;-1.256;2023-02-18T03:05:18;101413.91;;;8.24;59.52
62055;BME280;48653;51.742;-1.256;2023-02-18T03:07:51;101414.99;;;8.20;59.41
62055;BME280;48653;51.742;-1.256;2023-02-18T03:10:12;101407.79;;;8.59;57.97
62055;BME280;48653;51.742;-1.256;2023-02-18T03:12:33;101405.95;;;8.40;58.80
62055;BME280;48653;51.742;-1.256;2023-02-18T03:14:57;101392.55;;;8.06;60.07
62055;BME280;48653;51.742;-1.256;2023-02-18T03:17:22;101394.83;;;7.64;60.54
62055;BME280;48653;51.742;-1.256;2023-02-18T03:19:44;101401.74;;;8.30;59.92
62055;BME280;48653;51.742;-1.256;2023-02-18T03:22:08;101384.81;;;8.07;60.34
62055;BME280;48653;51.742;-1.256;2023-02-18T03:24:35;101388.38;;;7.62;61.06
62055;BME280;48653;51.742;-1.256;2023-02-18T03:27:02;101382.83;;;8.12;59.08
62055;BME280;48653;51.742;-1.256;2023-02-18T03:29:22;101388.27;;;8.30;58.85
62055;BME280;48653;51.742;-1.256;2023-02-18T03:31:53;101379.73;;;8.34;58.90
62055;BME280;48653;51.742;-1.256;2023-02-18T03:34:17;101393.05;;;7.61;59.93
62055;BME280;48653;51.742;-1.256;2023-02-18T03:36:38;101388.14;;;8.15;58.85
62055;BME280;48653;51.742;-1.256;2023-02-18T03:39:05;101385.70;;;7.95;59.30
62055;BME280;48653;51.742;-1.256;2023-02-18T03:41:28;101386.83;;;8.30;58.92
62055;BME280;48653;51.742;-1.256;2023-02-18T03:43:58;101402.93;;;8.61;57.93
62055;BME280;48653;51.742;-1.256;2023-02-18T03:46:18;101391.01;;;8.19;58.99
62055;BME280;48653;51.742;-1.256;2023-02-18T03:48:44;101392.15;;;8.74;58.14
62055;BME280;48653;51.742;-1.256;2023-02-18T03:51:08;101386.13;;;8.26;58.71
62055;BME280;48653;51.742;-1.256;2023-02-18T03:53:33;101391.39;;;8.24;59.60
62055;BME280;48653;51.742;-1.256;2023-02-18T03:55:58;101390.49;;;8.33;60.83
62055;BME280;48653;51.742;-1.256;2023-02-18T03:58:23;101390.93;;;8.07;61.12
62055;BME280;48653;51.742;-1.256;2023-02-18T04:00:48;101387.24;;;8.49;59.75
62055;BME280;48653;51.742;-1.256;2023-02-18T04:03:13;101395.95;;;8.74;59.25
62055;BME280;48653;51.742;-1.256;2023-02-18T04:05:39;101399.22;;;8.45;60.18
62055;BME280;48653;51.742;-1.256;2023-02-18T04:08:04;101399.57;;;8.49;60.14
62055;BME280;48653;51.742;-1.256;2023-02-18T04:10:29;101409.60;;;8.34;60.87
62055;BME280;48653;51.742;-1.256;2023-02-18T04:12:54;101400.77;;;8.27;60.57
62055;BME280;48653;51.742;-1.256;2023-02-18T04:15:19;101397.07;;;8.73;60.17
62055;BME280;48653;51.742;-1.256;2023-02-18T04:17:44;101403.25;;;8.59;60.14
62055;BME280;48653;51.742;-1.256;2023-02-18T04:20:10;101402.56;;;8.51;60.87
62055;BME280;48653;51.742;-1.256;2023-02-18T04:22:34;101406.46;;;8.63;60.38
62055;BME280;48653;51.742;-1.256;2023-02-18T04:24:59;101403.14;;;9.06;58.82
62055;BME280;48653;51.742;-1.256;2023-02-18T04:27:24;101396.07;;;9.35;58.82
62055;BME280;48653;51.742;-1.256;2023-02-18T04:29:50;101391.35;;;9.18;59.66
62055;BME280;48653;51.742;-1.256;2023-02-18T04:32:14;101396.27;;;9.55;59.02
62055;BME280;48653;51.742;-1.256;2023-02-18T04:34:40;101391.53;;;8.64;61.98
62055;BME280;48653;51.742;-1.256;2023-02-18T04:37:05;101384.41;;;9.64;60.05
62055;BME280;48653;51.742;-1.256;2023-02-18T04:39:30;101382.53;;;9.26;60.68
62055;BME280;48653;51.742;-1.256;2023-02-18T04:41:55;101394.72;;;8.94;61.18
62055;BME280;48653;51.742;-1.256;2023-02-18T04:44:20;101401.29;;;9.04;60.30
62055;BME280;48653;51.742;-1.256;2023-02-18T04:46:45;101387.69;;;9.26;61.35
62055;BME280;48653;51.742;-1.256;2023-02-18T04:49:10;101390.03;;;9.28;60.89
62055;BME280;48653;51.742;-1.256;2023-02-18T04:51:35;101379.86;;;9.11;60.95
62055;BME280;48653;51.742;-1.256;2023-02-18T04:54:01;101394.15;;;9.05;61.00
62055;BME280;48653;51.742;-1.256;2023-02-18T04:56:26;101395.66;;;9.00;61.29
62055;BME280;48653;51.742;-1.256;2023-02-18T04:58:51;101389.87;;;9.14;61.22
62055;BME280;48653;51.742;-1.256;2023-02-18T05:01:16;101395.02;;;8.83;62.11
62055;BME280;48653;51.742;-1.256;2023-02-18T05:03:41;101401.72;;;8.83;63.07
62055;BME280;48653;51.742;-1.256;2023-02-18T05:06:06;101398.67;;;9.60;61.49
62055;BME280;48653;51.742;-1.256;2023-02-18T05:08:31;101407.74;;;9.03;62.94
62055;BME280;48653;51.742;-1.256;2023-02-18T05:10:56;101409.00;;;8.53;65.19
62055;BME280;48653;51.742;-1.256;2023-02-18T05:13:21;101407.67;;;8.88;64.48
62055;BME280;48653;51.742;-1.256;2023-02-18T05:15:46;101396.54;;;8.68;64.95
62055;BME280;48653;51.742;-1.256;2023-02-18T05:18:11;101387.73;;;9.09;64.04
62055;BME280;48653;51.742;-1.256;2023-02-18T05:20:36;101387.75;;;8.60;65.29
62055;BME280;48653;51.742;-1.256;2023-02-18T05:23:02;101388.55;;;9.04;64.30
62055;BME280;48653;51.742;-1.256;2023-02-18T05:25:27;101371.35;;;8.90;63.94
62055;BME280;48653;51.742;-1.256;2023-02-18T05:27:52;101379.16;;;9.19;62.65
62055;BME280;48653;51.742;-1.256;2023-02-18T05:30:17;101382.00;;;9.34;63.60
62055;BME280;48653;51.742;-1.256;2023-02-18T05:32:42;101390.48;;;8.60;65.25
62055;BME280;48653;51.742;-1.256;2023-02-18T05:35:07;101387.74;;;9.07;64.33
62055;BME280;48653;51.742;-1.256;2023-02-18T05:37:32;101399.60;;;9.07;64.41
62055;BME280;48653;51.742;-1.256;2023-02-18T05:39:57;101402.98;;;9.33;61.84
62055;BME280;48653;51.742;-1.256;2023-02-18T05:42:22;101393.26;;;9.50;63.22
62055;BME280;48653;51.742;-1.256;2023-02-18T05:44:47;101398.42;;;9.66;62.33
62055;BME280;48653;51.742;-1.256;2023-02-18T05:47:12;101397.49;;;9.51;61.94
62055;BME280;48653;51.742;-1.256;2023-02-18T05:49:39;101390.29;;;9.14;63.91
62055;BME280;48653;51.742;-1.256;2023-02-18T05:52:03;101398.00;;;8.98;64.53
62055;BME280;48653;51.742;-1.256;2023-02-18T05:54:28;101397.26;;;8.88;64.81
62055;BME280;48653;51.742;-1.256;2023-02-18T05:56:53;101400.84;;;9.43;61.95
62055;BME280;48653;51.742;-1.256;2023-02-18T05:59:18;101404.45;;;9.90;60.44
62055;BME280;48653;51.742;-1.256;2023-02-18T06:01:43;101403.37;;;9.67;62.12
62055;BME280;48653;51.742;-1.256;2023-02-18T06:04:08;101406.59;;;9.87;61.51
62055;BME280;48653;51.742;-1.256;2023-02-18T06:06:33;101397.48;;;9.31;62.16
62055;BME280;48653;51.742;-1.256;2023-02-18T06:08:59;101400.30;;;9.34;62.79
62055;BME280;48653;51.742;-1.256;2023-02-18T06:11:24;101396.36;;;9.01;63.50
62055;BME280;48653;51.742;-1.256;2023-02-18T06:13:49;101388.92;;;8.84;63.98
62055;BME280;48653;51.742;-1.256;2023-02-18T06:16:14;101391.67;;;9.09;63.34
62055;BME280;48653;51.742;-1.256;2023-02-18T06:18:39;101385.02;;;9.39;63.22
62055;BME280;48653;51.742;-1.256;2023-02-18T06:21:05;101377.81;;;9.09;63.43
62055;BME280;48653;51.742;-1.256;2023-02-18T06:23:29;101375.14;;;9.35;62.45
62055;BME280;48653;51.742;-1.256;2023-02-18T06:25:54;101372.39;;;9.45;61.90
62055;BME280;48653;51.742;-1.256;2023-02-18T06:28:19;101378.49;;;9.60;61.69
62055;BME280;48653;51.742;-1.256;2023-02-18T06:30:45;101376.93;;;9.44;62.57
62055;BME280;48653;51.742;-1.256;2023-02-18T06:33:09;101383.57;;;9.28;63.19
62055;BME280;48653;51.742;-1.256;2023-02-18T06:35:34;101390.99;;;9.63;62.72
62055;BME280;48653;51.742;-1.256;2023-02-18T06:37:59;101386.72;;;8.78;64.90
62055;BME280;48653;51.742;-1.256;2023-02-18T06:40:25;101394.97;;;8.86;65.55
62055;BME280;48653;51.742;-1.256;2023-02-18T06:42:49;101386.42;;;9.39;64.45
62055;BME280;48653;51.742;-1.256;2023-02-18T06:45:15;101383.14;;;8.84;66.17
62055;BME280;48653;51.742;-1.256;2023-02-18T06:47:40;101389.10;;;8.82;66.62
62055;BME280;48653;51.742;-1.256;2023-02-18T06:50:06;101398.06;;;8.95;66.28
62055;BME280;48653;51.742;-1.256;2023-02-18T06:52:30;101378.66;;;8.97;65.54
62055;BME280;48653;51.742;-1.256;2023-02-18T06:54:55;101393.94;;;9.92;62.77
62055;BME280;48653;51.742;-1.256;2023-02-18T06:57:20;101381.19;;;9.55;63.97
62055;BME280;48653;51.742;-1.256;2023-02-18T06:59:45;101383.64;;;9.21;64.94
62055;BME280;48653;51.742;-1.256;2023-02-18T07:02:12;101388.01;;;9.69;63.83
62055;BME280;48653;51.742;-1.256;2023-02-18T07:04:35;101377.44;;;9.52;64.78
62055;BME280;48653;51.742;-1.256;2023-02-18T07:07:01;101380.27;;;9.18;64.57
62055;BME280;48653;51.742;-1.256;2023-02-18T07:09:25;101391.27;;;9.29;64.64
62055;BME280;48653;51.742;-1.256;2023-02-18T07:11:50;101389.33;;;9.24;65.27
62055;BME280;48653;51.742;-1.256;2023-02-18T07:14:16;101388.19;;;9.18;64.73
62055;BME280;48653;51.742;-1.256;2023-02-18T07:16:41;101382.68;;;9.16;66.19
62055;BME280;48653;51.742;-1.256;2023-02-18T07:19:06;101368.13;;;9.08;65.87
62055;BME280;48653;51.742;-1.256;2023-02-18T07:21:31;101361.55;;;9.28;64.87
62055;BME280;48653;51.742;-1.256;2023-02-18T07:23:56;101359.32;;;9.35;64.64
62055;BME280;48653;51.742;-1.256;2023-02-18T07:26:21;101358.36;;;8.99;66.71
62055;BME280;48653;51.742;-1.256;2023-02-18T07:28:46;101360.10;;;9.20;65.16
62055;BME280;48653;51.742;-1.256;2023-02-18T07:31:11;101364.58;;;9.10;65.82
62055;BME280;48653;51.742;-1.256;2023-02-18T07:33:36;101370.00;;;8.42;68.38
62055;BME280;48653;51.742;-1.256;2023-02-18T07:36:02;101371.87;;;9.17;66.08
62055;BME280;48653;51.742;-1.256;2023-02-18T07:38:27;101370.24;;;9.19;65.17
62055;BME280;48653;51.742;-1.256;2023-02-18T07:40:52;101366.61;;;8.73;67.15
62055;BME280;48653;51.742;-1.256;2023-02-18T07:43:17;101360.90;;;9.75;64.72
62055;BME280;48653;51.742;-1.256;2023-02-18T07:45:42;101374.84;;;8.86;66.18
62055;BME280;48653;51.742;-1.256;2023-02-18T07:48:06;101383.97;;;9.16;66.65
62055;BME280;48653;51.742;-1.256;2023-02-18T07:50:32;101379.26;;;9.09;67.18
62055;BME280;48653;51.742;-1.256;2023-02-18T07:52:57;101374.39;;;8.87;67.82
62055;BME280;48653;51.742;-1.256;2023-02-18T07:55:22;101365.56;;;8.77;67.27
62055;BME280;48653;51.742;-1.256;2023-02-18T07:57:47;101367.75;;;8.89;66.47
62055;BME280;48653;51.742;-1.256;2023-02-18T08:00:13;101367.04;;;9.29;66.84
62055;BME280;48653;51.742;-1.256;2023-02-18T08:02:37;101368.21;;;9.02;67.52
62055;BME280;48653;51.742;-1.256;2023-02-18T08:05:03;101376.15;;;8.77;67.50
62055;BME280;48653;51.742;-1.256;2023-02-18T08:07:28;101383.53;;;9.05;67.51
62055;BME280;48653;51.742;-1.256;2023-02-18T08:09:53;101373.22;;;9.02;67.68
62055;BME280;48653;51.742;-1.256;2023-02-18T08:12:18;101373.86;;;8.80;68.29
62055;BME280;48653;51.742;-1.256;2023-02-18T08:14:44;101376.84;;;9.23;65.95
62055;BME280;48653;51.742;-1.256;2023-02-18T08:17:08;101372.81;;;9.15;67.30
62055;BME280;48653;51.742;-1.256;2023-02-18T08:19:34;101373.12;;;9.35;65.14
62055;BME280;48653;51.742;-1.256;2023-02-18T08:22:00;101372.68;;;9.17;65.97
62055;BME280;48653;51.742;-1.256;2023-02-18T08:24:24;101369.86;;;9.51;66.02
62055;BME280;48653;51.742;-1.256;2023-02-18T08:26:49;101369.92;;;9.34;65.79
62055;BME280;48653;51.742;-1.256;2023-02-18T08:29:14;101368.70;;;9.32;66.90
62055;BME280;48653;51.742;-1.256;2023-02-18T08:31:39;101358.28;;;8.83;68.40
62055;BME280;48653;51.742;-1.256;2023-02-18T08:34:04;101368.80;;;9.44;66.38
62055;BME280;48653;51.742;-1.256;2023-02-18T08:36:30;101370.15;;;8.90;67.53
62055;BME280;48653;51.742;-1.256;2023-02-18T08:38:55;101384.96;;;8.76;68.79
62055;BME280;48653;51.742;-1.256;2023-02-18T08:41:19;101384.85;;;9.38;65.93
62055;BME280;48653;51.742;-1.256;2023-02-18T08:43:45;101381.23;;;9.17;66.21
62055;BME280;48653;51.742;-1.256;2023-02-18T08:46:10;101389.43;;;9.78;64.27
62055;BME280;48653;51.742;-1.256;2023-02-18T08:48:34;101396.54;;;9.05;66.41
62055;BME280;48653;51.742;-1.256;2023-02-18T08:51:07;101391.78;;;9.26;67.39
62055;BME280;48653;51.742;-1.256;2023-02-18T08:53:25;101394.15;;;9.13;67.85
62055;BME280;48653;51.742;-1.256;2023-02-18T08:55:50;101396.03;;;9.27;66.78
62055;BME280;48653;51.742;-1.256;2023-02-18T08:58:15;101400.14;;;9.16;67.65
62055;BME280;48653;51.742;-1.256;2023-02-18T09:00:41;101408.91;;;9.60;65.55
62055;BME280;48653;51.742;-1.256;2023-02-18T09:03:05;101408.88;;;9.65;64.29
62055;BME280;48653;51.742;-1.256;2023-02-18T09:05:30;101403.76;;;9.39;66.06
62055;BME280;48653;51.742;-1.256;2023-02-18T09:07:55;101414.54;;;9.88;64.77
62055;BME280;48653;51.742;-1.256;2023-02-18T09:10:20;101409.37;;;9.96;63.46
62055;BME280;48653;51.742;-1.256;2023-02-18T09:12:45;101407.31;;;9.97;65.24
62055;BME280;48653;51.742;-1.256;2023-02-18T09:15:10;101416.82;;;9.79;64.96
62055;BME280;48653;51.742;-1.256;2023-02-18T09:17:35;101394.55;;;9.63;66.02
62055;BME280;48653;51.742;-1.256;2023-02-18T09:20:00;101402.73;;;9.52;66.06
62055;BME280;48653;51.742;-1.256;2023-02-18T09:22:25;101402.47;;;9.60;65.83
62055;BME280;48653;51.742;-1.256;2023-02-18T09:24:50;101401.61;;;9.74;66.13
62055;BME280;48653;51.742;-1.256;2023-02-18T09:27:16;101402.76;;;9.21;66.22
62055;BME280;48653;51.742;-1.256;2023-02-18T09:29:41;101396.57;;;9.58;65.58
62055;BME280;48653;51.742;-1.256;2023-02-18T09:32:07;101395.88;;;10.28;64.68
62055;BME280;48653;51.742;-1.256;2023-02-18T09:34:31;101400.09;;;9.67;65.31
62055;BME280;48653;51.742;-1.256;2023-02-18T09:36:56;101402.47;;;10.14;64.90
62055;BME280;48653;51.742;-1.256;2023-02-18T09:39:22;101410.54;;;9.77;66.06
62055;BME280;48653;51.742;-1.256;2023-02-18T09:41:48;101420.19;;;9.76;66.03
62055;BME280;48653;51.742;-1.256;2023-02-18T09:44:15;101409.39;;;9.83;65.88
62055;BME280;48653;51.742;-1.256;2023-02-18T09:46:39;101420.27;;;10.12;64.64
62055;BME280;48653;51.742;-1.256;2023-02-18T09:49:03;101429.58;;;9.95;64.08
62055;BME280;48653;51.742;-1.256;2023-02-18T09:51:27;101432.07;;;11.12;61.81
62055;BME280;48653;51.742;-1.256;2023-02-18T09:53:52;101437.94;;;11.33;60.60
62055;BME280;48653;51.742;-1.256;2023-02-18T09:56:21;101435.84;;;11.17;61.16
62055;BME280;48653;51.742;-1.256;2023-02-18T09:58:43;101444.95;;;11.02;60.90
62055;BME280;48653;51.742;-1.256;2023-02-18T10:01:14;101432.44;;;10.69;61.66
62055;BME280;48653;51.742;-1.256;2023-02-18T10:03:32;101435.64;;;10.25;62.57
62055;BME280;48653;51.742;-1.256;2023-02-18T10:06:01;101432.61;;;10.17;63.33
62055;BME280;48653;51.742;-1.256;2023-02-18T10:08:25;101429.52;;;10.43;62.12
62055;BME280;48653;51.742;-1.256;2023-02-18T10:10:47;101427.10;;;10.83;61.87
62055;BME280;48653;51.742;-1.256;2023-02-18T10:13:15;101423.89;;;10.53;62.22
62055;BME280;48653;51.742;-1.256;2023-02-18T10:15:38;101429.24;;;10.71;61.44
62055;BME280;48653;51.742;-1.256;2023-02-18T10:18:03;101423.70;;;10.75;62.09
62055;BME280;48653;51.742;-1.256;2023-02-18T10:20:29;101423.89;;;10.10;63.69
62055;BME280;48653;51.742;-1.256;2023-02-18T10:22:53;101419.63;;;10.56;62.64
62055;BME280;48653;51.742;-1.256;2023-02-18T10:25:20;101432.46;;;10.15;63.81
62055;BME280;48653;51.742;-1.256;2023-02-18T10:27:42;101439.35;;;10.24;63.43
62055;BME280;48653;51.742;-1.256;2023-02-18T10:30:17;101446.16;;;10.97;61.88
62055;BME280;48653;51.742;-1.256;2023-02-18T10:32:36;101447.04;;;11.73;60.07
62055;BME280;48653;51.742;-1.256;2023-02-18T10:35:04;101460.56;;;11.50;60.51
62055;BME280;48653;51.742;-1.256;2023-02-18T10:37:34;101464.20;;;11.04;61.78
62055;BME280;48653;51.742;-1.256;2023-02-18T10:39:57;101468.29;;;10.68;61.60
62055;BME280;48653;51.742;-1.256;2023-02-18T10:42:22;101463.34;;;11.22;60.15
62055;BME280;48653;51.742;-1.256;2023-02-18T10:44:44;101462.46;;;10.94;61.61
62055;BME280;48653;51.742;-1.256;2023-02-18T10:47:13;101462.81;;;10.45;62.83
62055;BME280;48653;51.742;-1.256;2023-02-18T10:49:44;101455.61;;;10.96;62.08
62055;BME280;48653;51.742;-1.256;2023-02-18T10:51:55;101457.05;;;10.86;61.59
62055;BME280;48653;51.742;-1.256;2023-02-18T10:54:23;101456.59;;;11.45;60.05
62055;BME280;48653;51.742;-1.256;2023-02-18T10:56:47;101456.93;;;11.41;60.24
62055;BME280;48653;51.742;-1.256;2023-02-18T10:59:12;101448.33;;;10.51;62.75
62055;BME280;48653;51.742;-1.256;2023-02-18T11:01:33;101456.83;;;10.88;62.43
62055;BME280;48653;51.742;-1.256;2023-02-18T11:04:07;101455.47;;;11.97;59.60
62055;BME280;48653;51.742;-1.256;2023-02-18T11:06:28;101458.60;;;11.89;59.00
62055;BME280;48653;51.742;-1.256;2023-02-18T11:08:52;101456.56;;;11.32;60.38
62055;BME280;48653;51.742;-1.256;2023-02-18T11:11:17;101456.92;;;11.86;58.99
62055;BME280;48653;51.742;-1.256;2023-02-18T11:13:40;101457.85;;;12.21;57.89
62055;BME280;48653;51.742;-1.256;2023-02-18T11:16:06;101456.31;;;11.47;59.57
62055;BME280;48653;51.742;-1.256;2023-02-18T11:18:36;101454.03;;;12.05;58.38
62055;BME280;48653;51.742;-1.256;2023-02-18T11:20:57;101459.38;;;12.35;57.51
62055;BME280;48653;51.742;-1.256;2023-02-18T11:23:21;101453.26;;;11.95;58.41
62055;BME280;48653;51.742;-1.256;2023-02-18T11:25:55;101456.81;;;11.88;58.85
62055;BME280;48653;51.742;-1.256;2023-02-18T11:30:38;101459.52;;;12.11;58.13
62055;BME280;48653;51.742;-1.256;2023-02-18T11:33:05;101459.38;;;11.72;59.05
62055;BME280;48653;51.742;-1.256;2023-02-18T11:35:28;101455.65;;;11.65;58.99
62055;BME280;48653;51.742;-1.256;2023-02-18T11:37:52;101457.63;;;11.51;59.44
62055;BME280;48653;51.742;-1.256;2023-02-18T11:40:23;101454.42;;;11.63;58.82
62055;BME280;48653;51.742;-1.256;2023-02-18T11:42:43;101449.31;;;12.13;58.77
62055;BME280;48653;51.742;-1.256;2023-02-18T11:45:27;101452.13;;;11.42;60.74
62055;BME280;48653;51.742;-1.256;2023-02-18T11:47:36;101451.09;;;12.28;57.86
62055;BME280;48653;51.742;-1.256;2023-02-18T11:52:27;101454.50;;;10.83;62.35
62055;BME280;48653;51.742;-1.256;2023-02-18T11:54:59;101457.59;;;11.67;60.15
62055;BME280;48653;51.742;-1.256;2023-02-18T11:57:17;101454.87;;;11.59;59.82
62055;BME280;48653;51.742;-1.256;2023-02-18T11:59:41;101450.10;;;11.66;59.16
62055;BME280;48653;51.742;-1.256;2023-02-18T12:02:21;101461.26;;;12.20;58.37
62055;BME280;48653;51.742;-1.256;2023-02-18T12:04:36;101461.25;;;11.77;59.05
62055;BME280;48653;51.742;-1.256;2023-02-18T12:07:05;101466.16;;;11.84;58.90
62055;BME280;48653;51.742;-1.256;2023-02-18T12:09:27;101462.24;;;11.05;60.01
62055;BME280;48653;51.742;-1.256;2023-02-18T12:11:49;101455.48;;;11.59;58.76
62055;BME280;48653;51.742;-1.256;2023-02-18T12:14:16;101461.73;;;11.43;59.84
62055;BME280;48653;51.742;-1.256;2023-02-18T12:16:42;101459.94;;;11.75;59.19
62055;BME280;48653;51.742;-1.256;2023-02-18T12:19:15;101460.54;;;11.92;59.30
62055;BME280;48653;51.742;-1.256;2023-02-18T12:21:34;101459.15;;;11.34;60.06
62055;BME280;48653;51.742;-1.256;2023-02-18T12:24:01;101451.38;;;11.41;60.11
62055;BME280;48653;51.742;-1.256;2023-02-18T12:26:24;101449.71;;;11.81;58.38
62055;BME280;48653;51.742;-1.256;2023-02-18T12:28:52;101453.86;;;11.69;58.35
62055;BME280;48653;51.742;-1.256;2023-02-18T12:31:20;101448.44;;;11.10;59.89
62055;BME280;48653;51.742;-1.256;2023-02-18T12:33:41;101442.72;;;11.87;58.86
62055;BME280;48653;51.742;-1.256;2023-02-18T12:36:06;101442.18;;;11.92;57.61
62055;BME280;48653;51.742;-1.256;2023-02-18T12:38:43;101442.43;;;12.70;56.44
62055;BME280;48653;51.742;-1.256;2023-02-18T12:40:58;101439.10;;;12.33;57.84
62055;BME280;48653;51.742;-1.256;2023-02-18T12:43:21;101435.21;;;11.76;58.61
62055;BME280;48653;51.742;-1.256;2023-02-18T12:45:49;101437.72;;;12.02;58.67
62055;BME280;48653;51.742;-1.256;2023-02-18T12:48:21;101430.69;;;12.54;57.40
62055;BME280;48653;51.742;-1.256;2023-02-18T12:50:39;101433.10;;;12.47;56.59